sensor_id;sensor_type;location;lat;lon;timestamp;pressure;altitude;pressure_sealevel;temperature
79053;BMP280;68451;49.510;6.026;2023-04-24T00:00:46;96959.31;;;8.93
79053;BMP280;68451;49.510;6.026;2023-04-24T00:03:12;96917.94;;;8.64
79053;BMP280;68451;49.510;6.026;2023-04-24T00:05:38;96955.59;;;8.89
79053;BMP280;68451;49.510;6.026;2023-04-24T00:08:05;96969.41;;;8.90
79053;BMP280;68451;49.510;6.026;2023-04-24T00:10:31;96959.88;;;8.95
79053;BMP280;68451;49.510;6.026;2023-04-24T00:12:57;96945.56;;;8.81
79053;BMP280;68451;49.510;6.026;2023-04-24T00:15:22;96971.28;;;8.94
79053;BMP280;68451;49.510;6.026;2023-04-24T00:17:48;96960.16;;;8.82
79053;BMP280;68451;49.510;6.026;2023-04-24T00:20:14;96930.38;;;8.62
79053;BMP280;68451;49.510;6.026;2023-04-24T00:22:40;96963.09;;;8.86
79053;BMP280;68451;49.510;6.026;2023-04-24T00:25:06;96970.28;;;8.95
79053;BMP280;68451;49.510;6.026;2023-04-24T00:27:32;96938.38;;;8.72
79053;BMP280;68451;49.510;6.026;2023-04-24T00:29:57;96973.81;;;8.89
79053;BMP280;68451;49.510;6.026;2023-04-24T00:32:23;96985.22;;;8.88
79053;BMP280;68451;49.510;6.026;2023-04-24T00:34:48;96960.66;;;8.79
79053;BMP280;68451;49.510;6.026;2023-04-24T00:37:14;96975.06;;;8.87
79053;BMP280;68451;49.510;6.026;2023-04-24T00:39:40;96920.16;;;8.55
79053;BMP280;68451;49.510;6.026;2023-04-24T00:42:06;96955.09;;;8.76
79053;BMP280;68451;49.510;6.026;2023-04-24T00:44:33;96977.38;;;8.83
79053;BMP280;68451;49.510;6.026;2023-04-24T00:46:59;96974.19;;;8.81
79053;BMP280;68451;49.510;6.026;2023-04-24T00:49:25;96925.72;;;8.47
79053;BMP280;68451;49.510;6.026;2023-04-24T00:51:50;96962.41;;;8.62
79053;BMP280;68451;49.510;6.026;2023-04-24T00:54:17;96986.69;;;8.68
79053;BMP280;68451;49.510;6.026;2023-04-24T00:56:43;96944.22;;;8.34
79053;BMP280;68451;49.510;6.026;2023-04-24T00:59:10;96934.84;;;8.21
79053;BMP280;68451;49.510;6.026;2023-04-24T01:01:37;96973.25;;;8.42
79053;BMP280;68451;49.510;6.026;2023-04-24T01:04:03;96956.41;;;8.22
79053;BMP280;68451;49.510;6.026;2023-04-24T01:06:29;96975.41;;;8.22
79053;BMP280;68451;49.510;6.026;2023-04-24T01:08:57;96944.72;;;7.96
79053;BMP280;68451;49.510;6.026;2023-04-24T01:11:22;96945.19;;;7.81
79053;BMP280;68451;49.510;6.026;2023-04-24T01:13:48;96942.75;;;7.63
79053;BMP280;68451;49.510;6.026;2023-04-24T01:16:14;96986.88;;;7.86
79053;BMP280;68451;49.510;6.026;2023-04-24T01:18:43;96967.81;;;7.69
79053;BMP280;68451;49.510;6.026;2023-04-24T01:21:08;96949.75;;;7.51
79053;BMP280;68451;49.510;6.026;2023-04-24T01:23:34;96968.03;;;7.56
79053;BMP280;68451;49.510;6.026;2023-04-24T01:26:00;96989.94;;;7.60
79053;BMP280;68451;49.510;6.026;2023-04-24T01:28:25;96943.53;;;7.29
79053;BMP280;68451;49.510;6.026;2023-04-24T01:30:52;96950.19;;;7.25
79053;BMP280;68451;49.510;6.026;2023-04-24T01:33:20;96921.94;;;6.93
79053;BMP280;68451;49.510;6.026;2023-04-24T01:35:46;96978.88;;;7.30
79053;BMP280;68451;49.510;6.026;2023-04-24T01:38:12;96974.00;;;7.22
79053;BMP280;68451;49.510;6.026;2023-04-24T01:40:37;97002.22;;;7.30
79053;BMP280;68451;49.510;6.026;2023-04-24T01:43:03;96976.28;;;7.18
79053;BMP280;68451;49.510;6.026;2023-04-24T01:45:29;97004.03;;;7.29
79053;BMP280;68451;49.510;6.026;2023-04-24T01:47:54;96998.63;;;7.31
79053;BMP280;68451;49.510;6.026;2023-04-24T01:50:20;96984.50;;;7.27
79053;BMP280;68451;49.510;6.026;2023-04-24T01:52:46;96998.03;;;7.29
79053;BMP280;68451;49.510;6.026;2023-04-24T01:55:11;96987.31;;;7.13
79053;BMP280;68451;49.510;6.026;2023-04-24T01:57:38;97016.78;;;7.31
79053;BMP280;68451;49.510;6.026;2023-04-24T02:00:04;97011.59;;;7.31
79053;BMP280;68451;49.510;6.026;2023-04-24T02:02:30;96953.19;;;6.87
79053;BMP280;68451;49.510;6.026;2023-04-24T02:04:56;96992.50;;;7.25
79053;BMP280;68451;49.510;6.026;2023-04-24T02:07:22;96993.19;;;7.20
79053;BMP280;68451;49.510;6.026;2023-04-24T02:09:48;96975.69;;;7.04
79053;BMP280;68451;49.510;6.026;2023-04-24T02:12:14;96974.06;;;6.92
79053;BMP280;68451;49.510;6.026;2023-04-24T02:14:40;96959.13;;;6.75
79053;BMP280;68451;49.510;6.026;2023-04-24T02:17:05;97018.00;;;7.05
79053;BMP280;68451;49.510;6.026;2023-04-24T02:19:31;97017.75;;;7.06
79053;BMP280;68451;49.510;6.026;2023-04-24T02:21:57;97017.19;;;7.04
79053;BMP280;68451;49.510;6.026;2023-04-24T02:24:22;97013.94;;;7.09
79053;BMP280;68451;49.510;6.026;2023-04-24T02:26:48;96974.47;;;6.77
79053;BMP280;68451;49.510;6.026;2023-04-24T02:29:13;96966.47;;;6.79
79053;BMP280;68451;49.510;6.026;2023-04-24T02:31:39;96883.81;;;6.29
79053;BMP280;68451;49.510;6.026;2023-04-24T02:34:05;96969.09;;;6.90
79053;BMP280;68451;49.510;6.026;2023-04-24T02:36:30;96971.47;;;6.92
79053;BMP280;68451;49.510;6.026;2023-04-24T02:38:56;97008.75;;;7.20
79053;BMP280;68451;49.510;6.026;2023-04-24T02:41:22;96957.13;;;6.89
79053;BMP280;68451;49.510;6.026;2023-04-24T02:43:47;97019.47;;;7.24
79053;BMP280;68451;49.510;6.026;2023-04-24T02:46:13;97009.22;;;7.17
79053;BMP280;68451;49.510;6.026;2023-04-24T02:48:39;96921.41;;;6.61
79053;BMP280;68451;49.510;6.026;2023-04-24T02:51:05;97008.97;;;7.19
79053;BMP280;68451;49.510;6.026;2023-04-24T02:53:31;97013.03;;;7.15
79053;BMP280;68451;49.510;6.026;2023-04-24T02:55:57;97021.66;;;7.27
79053;BMP280;68451;49.510;6.026;2023-04-24T02:58:22;97008.63;;;7.15
79053;BMP280;68451;49.510;6.026;2023-04-24T03:00:48;96910.91;;;6.56
79053;BMP280;68451;49.510;6.026;2023-04-24T03:03:14;97024.47;;;7.26
79053;BMP280;68451;49.510;6.026;2023-04-24T03:05:40;97026.72;;;7.22
79053;BMP280;68451;49.510;6.026;2023-04-24T03:08:06;97041.84;;;7.25
79053;BMP280;68451;49.510;6.026;2023-04-24T03:10:31;97046.22;;;7.25
79053;BMP280;68451;49.510;6.026;2023-04-24T03:12:57;96950.19;;;6.60
79053;BMP280;68451;49.510;6.026;2023-04-24T03:15:23;97031.44;;;7.13
79053;BMP280;68451;49.510;6.026;2023-04-24T03:17:48;97027.59;;;7.16
79053;BMP280;68451;49.510;6.026;2023-04-24T03:20:14;97041.72;;;7.20
79053;BMP280;68451;49.510;6.026;2023-04-24T03:22:39;97054.94;;;7.30
79053;BMP280;68451;49.510;6.026;2023-04-24T03:25:05;97044.75;;;7.17
79053;BMP280;68451;49.510;6.026;2023-04-24T03:27:31;97001.81;;;6.91
79053;BMP280;68451;49.510;6.026;2023-04-24T03:29:56;97024.97;;;7.04
79053;BMP280;68451;49.510;6.026;2023-04-24T03:32:22;97000.03;;;6.92
79053;BMP280;68451;49.510;6.026;2023-04-24T03:34:48;97038.09;;;7.09
79053;BMP280;68451;49.510;6.026;2023-04-24T03:37:15;97046.91;;;7.20
79053;BMP280;68451;49.510;6.026;2023-04-24T03:39:40;97017.19;;;7.04
79053;BMP280;68451;49.510;6.026;2023-04-24T03:42:06;96908.63;;;6.37
79053;BMP280;68451;49.510;6.026;2023-04-24T03:44:33;97046.47;;;7.23
79053;BMP280;68451;49.510;6.026;2023-04-24T03:46:59;97043.97;;;7.28
79053;BMP280;68451;49.510;6.026;2023-04-24T03:49:24;97062.53;;;7.32
79053;BMP280;68451;49.510;6.026;2023-04-24T03:51:50;97016.75;;;7.07
79053;BMP280;68451;49.510;6.026;2023-04-24T03:54:18;97036.63;;;7.13
79053;BMP280;68451;49.510;6.026;2023-04-24T03:56:43;97048.28;;;7.23
79053;BMP280;68451;49.510;6.026;2023-04-24T03:59:09;96930.28;;;6.42
79053;BMP280;68451;49.510;6.026;2023-04-24T04:01:35;97051.56;;;7.30
79053;BMP280;68451;49.510;6.026;2023-04-24T04:04:05;97052.22;;;7.25
79053;BMP280;68451;49.510;6.026;2023-04-24T04:06:31;97071.31;;;7.31
79053;BMP280;68451;49.510;6.026;2023-04-24T04:08:57;97073.66;;;7.32
79053;BMP280;68451;49.510;6.026;2023-04-24T04:11:23;97021.13;;;6.95
79053;BMP280;68451;49.510;6.026;2023-04-24T04:13:49;97061.13;;;7.17
79053;BMP280;68451;49.510;6.026;2023-04-24T04:16:14;97063.25;;;7.09
79053;BMP280;68451;49.510;6.026;2023-04-24T04:18:42;97071.72;;;7.16
79053;BMP280;68451;49.510;6.026;2023-04-24T04:21:08;97042.66;;;6.96
79053;BMP280;68451;49.510;6.026;2023-04-24T04:23:33;97091.50;;;7.29
79053;BMP280;68451;49.510;6.026;2023-04-24T04:25:59;97094.41;;;7.20
79053;BMP280;68451;49.510;6.026;2023-04-24T04:28:25;97087.50;;;7.14
79053;BMP280;68451;49.510;6.026;2023-04-24T04:30:51;97110.00;;;7.20
79053;BMP280;68451;49.510;6.026;2023-04-24T04:33:21;97090.09;;;7.14
79053;BMP280;68451;49.510;6.026;2023-04-24T04:35:46;97089.09;;;7.15
79053;BMP280;68451;49.510;6.026;2023-04-24T04:38:17;97075.28;;;7.03
79053;BMP280;68451;49.510;6.026;2023-04-24T04:40:43;97111.72;;;7.27
79053;BMP280;68451;49.510;6.026;2023-04-24T04:43:09;97101.28;;;7.15
79053;BMP280;68451;49.510;6.026;2023-04-24T04:45:36;97101.06;;;7.16
79053;BMP280;68451;49.510;6.026;2023-04-24T04:48:04;97112.03;;;7.18
79053;BMP280;68451;49.510;6.026;2023-04-24T04:50:31;97059.56;;;6.87
79053;BMP280;68451;49.510;6.026;2023-04-24T04:52:56;97081.00;;;6.94
79053;BMP280;68451;49.510;6.026;2023-04-24T04:55:22;97102.72;;;7.11
79053;BMP280;68451;49.510;6.026;2023-04-24T04:57:47;97131.91;;;7.25
79053;BMP280;68451;49.510;6.026;2023-04-24T05:00:13;97105.56;;;7.09
79053;BMP280;68451;49.510;6.026;2023-04-24T05:05:07;97052.00;;;6.67
79053;BMP280;68451;49.510;6.026;2023-04-24T05:07:35;97155.66;;;7.40
79053;BMP280;68451;49.510;6.026;2023-04-24T05:10:01;97153.50;;;7.37
79053;BMP280;68451;49.510;6.026;2023-04-24T05:12:27;97141.94;;;7.21
79053;BMP280;68451;49.510;6.026;2023-04-24T05:14:53;97163.78;;;7.32
79053;BMP280;68451;49.510;6.026;2023-04-24T05:17:19;96762.69;;;4.74
79053;BMP280;68451;49.510;6.026;2023-04-24T05:19:44;97148.38;;;7.18
79053;BMP280;68451;49.510;6.026;2023-04-24T05:22:11;97098.53;;;6.80
79053;BMP280;68451;49.510;6.026;2023-04-24T05:24:37;97165.56;;;7.31
79053;BMP280;68451;49.510;6.026;2023-04-24T05:27:03;97171.97;;;7.29
79053;BMP280;68451;49.510;6.026;2023-04-24T05:29:30;97176.16;;;7.30
79053;BMP280;68451;49.510;6.026;2023-04-24T05:31:57;97165.50;;;7.19
79053;BMP280;68451;49.510;6.026;2023-04-24T05:34:23;97113.94;;;6.93
79053;BMP280;68451;49.510;6.026;2023-04-24T05:36:48;97178.06;;;7.23
79053;BMP280;68451;49.510;6.026;2023-04-24T05:39:16;97046.22;;;6.35
79053;BMP280;68451;49.510;6.026;2023-04-24T05:41:42;97199.84;;;7.22
79053;BMP280;68451;49.510;6.026;2023-04-24T05:44:09;96913.94;;;5.32
79053;BMP280;68451;49.510;6.026;2023-04-24T05:46:34;97215.97;;;7.24
79053;BMP280;68451;49.510;6.026;2023-04-24T05:49:00;97195.88;;;7.19
79053;BMP280;68451;49.510;6.026;2023-04-24T05:51:26;97185.72;;;6.99
79053;BMP280;68451;49.510;6.026;2023-04-24T05:53:52;97223.19;;;7.22
79053;BMP280;68451;49.510;6.026;2023-04-24T05:56:18;97227.41;;;7.23
79053;BMP280;68451;49.510;6.026;2023-04-24T05:58:43;97216.44;;;7.02
79053;BMP280;68451;49.510;6.026;2023-04-24T06:01:09;97211.97;;;7.09
79053;BMP280;68451;49.510;6.026;2023-04-24T06:03:35;97202.31;;;6.98
79053;BMP280;68451;49.510;6.026;2023-04-24T06:06:00;97195.53;;;6.97
79053;BMP280;68451;49.510;6.026;2023-04-24T06:08:26;96956.47;;;5.43
79053;BMP280;68451;49.510;6.026;2023-04-24T06:10:51;97218.88;;;7.15
79053;BMP280;68451;49.510;6.026;2023-04-24T06:13:17;97169.81;;;6.96
79053;BMP280;68451;49.510;6.026;2023-04-24T06:15:43;97180.81;;;7.09
79053;BMP280;68451;49.510;6.026;2023-04-24T06:18:09;97178.94;;;7.16
79053;BMP280;68451;49.510;6.026;2023-04-24T06:20:35;97147.50;;;7.06
79053;BMP280;68451;49.510;6.026;2023-04-24T06:23:01;97178.75;;;7.30
79053;BMP280;68451;49.510;6.026;2023-04-24T06:25:27;97189.44;;;7.40
79053;BMP280;68451;49.510;6.026;2023-04-24T06:27:53;97176.28;;;7.23
79053;BMP280;68451;49.510;6.026;2023-04-24T06:30:19;97172.22;;;7.27
79053;BMP280;68451;49.510;6.026;2023-04-24T06:32:44;97230.53;;;7.73
79053;BMP280;68451;49.510;6.026;2023-04-24T06:35:10;97132.59;;;7.02
79053;BMP280;68451;49.510;6.026;2023-04-24T06:37:39;97112.44;;;6.86
79053;BMP280;68451;49.510;6.026;2023-04-24T06:40:05;97082.00;;;6.63
79053;BMP280;68451;49.510;6.026;2023-04-24T06:42:31;97199.81;;;7.40
79053;BMP280;68451;49.510;6.026;2023-04-24T06:44:56;97248.38;;;7.69
79053;BMP280;68451;49.510;6.026;2023-04-24T06:47:22;97192.06;;;7.22
79053;BMP280;68451;49.510;6.026;2023-04-24T06:49:47;97254.00;;;7.66
79053;BMP280;68451;49.510;6.026;2023-04-24T06:52:13;97224.47;;;7.49
79053;BMP280;68451;49.510;6.026;2023-04-24T06:54:41;97059.25;;;6.47
79053;BMP280;68451;49.510;6.026;2023-04-24T06:57:06;97169.13;;;7.18
79053;BMP280;68451;49.510;6.026;2023-04-24T06:59:33;97252.41;;;7.65
79053;BMP280;68451;49.510;6.026;2023-04-24T07:01:58;97260.69;;;7.74
79053;BMP280;68451;49.510;6.026;2023-04-24T07:04:24;97215.28;;;7.46
79053;BMP280;68451;49.510;6.026;2023-04-24T07:06:50;97204.00;;;7.41
79053;BMP280;68451;49.510;6.026;2023-04-24T07:09:16;97053.75;;;6.55
79053;BMP280;68451;49.510;6.026;2023-04-24T07:11:44;97260.50;;;7.87
79053;BMP280;68451;49.510;6.026;2023-04-24T07:14:09;97229.44;;;7.80
79053;BMP280;68451;49.510;6.026;2023-04-24T07:16:35;97254.78;;;7.96
79053;BMP280;68451;49.510;6.026;2023-04-24T07:19:01;97123.78;;;7.21
79053;BMP280;68451;49.510;6.026;2023-04-24T07:21:26;97213.97;;;7.85
79053;BMP280;68451;49.510;6.026;2023-04-24T07:23:53;97216.88;;;7.77
79053;BMP280;68451;49.510;6.026;2023-04-24T07:26:19;97254.25;;;8.06
79053;BMP280;68451;49.510;6.026;2023-04-24T07:28:46;97289.91;;;8.29
79053;BMP280;68451;49.510;6.026;2023-04-24T07:31:11;97219.03;;;7.80
79053;BMP280;68451;49.510;6.026;2023-04-24T07:33:37;97199.72;;;7.76
79053;BMP280;68451;49.510;6.026;2023-04-24T07:36:03;97266.59;;;8.10
79053;BMP280;68451;49.510;6.026;2023-04-24T07:38:30;97142.69;;;7.40
79053;BMP280;68451;49.510;6.026;2023-04-24T07:40:56;97249.25;;;8.04
79053;BMP280;68451;49.510;6.026;2023-04-24T07:43:21;97287.66;;;8.21
79053;BMP280;68451;49.510;6.026;2023-04-24T07:45:49;97144.22;;;7.29
79053;BMP280;68451;49.510;6.026;2023-04-24T07:48:15;97034.16;;;6.59
79053;BMP280;68451;49.510;6.026;2023-04-24T07:50:42;97312.34;;;8.30
79053;BMP280;68451;49.510;6.026;2023-04-24T07:53:07;97265.28;;;7.90
79053;BMP280;68451;49.510;6.026;2023-04-24T07:55:33;97293.09;;;8.01
79053;BMP280;68451;49.510;6.026;2023-04-24T07:57:58;97285.84;;;7.91
79053;BMP280;68451;49.510;6.026;2023-04-24T08:00:24;97320.59;;;8.08
79053;BMP280;68451;49.510;6.026;2023-04-24T08:02:49;97292.28;;;7.89
79053;BMP280;68451;49.510;6.026;2023-04-24T08:05:15;97313.84;;;8.07
79053;BMP280;68451;49.510;6.026;2023-04-24T08:07:41;97340.78;;;8.25
79053;BMP280;68451;49.510;6.026;2023-04-24T08:10:09;97313.91;;;8.01
79053;BMP280;68451;49.510;6.026;2023-04-24T08:12:35;97327.53;;;8.15
79053;BMP280;68451;49.510;6.026;2023-04-24T08:15:01;97354.28;;;8.33
79053;BMP280;68451;49.510;6.026;2023-04-24T08:17:26;97282.03;;;7.94
79053;BMP280;68451;49.510;6.026;2023-04-24T08:19:52;97344.84;;;8.21
79053;BMP280;68451;49.510;6.026;2023-04-24T08:22:24;97205.06;;;7.33
79053;BMP280;68451;49.510;6.026;2023-04-24T08:24:50;97315.38;;;8.08
79053;BMP280;68451;49.510;6.026;2023-04-24T08:27:15;97236.44;;;7.50
79053;BMP280;68451;49.510;6.026;2023-04-24T08:29:41;97366.72;;;8.31
79053;BMP280;68451;49.510;6.026;2023-04-24T08:32:07;97344.56;;;8.10
79053;BMP280;68451;49.510;6.026;2023-04-24T08:34:32;97352.78;;;8.26
79053;BMP280;68451;49.510;6.026;2023-04-24T08:36:57;97307.47;;;8.03
79053;BMP280;68451;49.510;6.026;2023-04-24T08:39:23;97356.22;;;8.38
79053;BMP280;68451;49.510;6.026;2023-04-24T08:41:50;97372.44;;;8.51
79053;BMP280;68451;49.510;6.026;2023-04-24T08:44:17;97346.31;;;8.46
79053;BMP280;68451;49.510;6.026;2023-04-24T08:46:43;97325.50;;;8.58
79053;BMP280;68451;49.510;6.026;2023-04-24T08:49:14;97404.34;;;9.23
79053;BMP280;68451;49.510;6.026;2023-04-24T08:51:42;97373.97;;;9.29
79053;BMP280;68451;49.510;6.026;2023-04-24T08:54:08;97379.44;;;9.51
79053;BMP280;68451;49.510;6.026;2023-04-24T08:56:36;97367.84;;;9.58
79053;BMP280;68451;49.510;6.026;2023-04-24T08:59:05;97360.41;;;9.78
79053;BMP280;68451;49.510;6.026;2023-04-24T09:01:32;97226.81;;;9.15
79053;BMP280;68451;49.510;6.026;2023-04-24T09:04:02;97295.63;;;9.70
79053;BMP280;68451;49.510;6.026;2023-04-24T09:06:29;97356.09;;;10.24
79053;BMP280;68451;49.510;6.026;2023-04-24T09:08:57;97382.91;;;10.64
79053;BMP280;68451;49.510;6.026;2023-04-24T09:11:26;97392.09;;;10.84
79053;BMP280;68451;49.510;6.026;2023-04-24T09:13:53;97376.81;;;11.09
79053;BMP280;68451;49.510;6.026;2023-04-24T09:16:19;97358.44;;;11.37
79053;BMP280;68451;49.510;6.026;2023-04-24T09:18:45;97254.91;;;10.93
79053;BMP280;68451;49.510;6.026;2023-04-24T09:21:11;97357.66;;;11.58
79053;BMP280;68451;49.510;6.026;2023-04-24T09:23:37;97395.31;;;11.79
79053;BMP280;68451;49.510;6.026;2023-04-24T09:26:04;97416.94;;;11.91
79053;BMP280;68451;49.510;6.026;2023-04-24T09:28:32;97384.72;;;11.69
79053;BMP280;68451;49.510;6.026;2023-04-24T09:31:12;97307.97;;;10.98
79053;BMP280;68451;49.510;6.026;2023-04-24T09:33:40;97407.75;;;11.50
79053;BMP280;68451;49.510;6.026;2023-04-24T09:36:05;97408.56;;;12.65
79053;BMP280;68451;49.510;6.026;2023-04-24T09:38:36;97182.09;;;11.45
79053;BMP280;68451;49.510;6.026;2023-04-24T09:41:07;97388.50;;;12.75
79053;BMP280;68451;49.510;6.026;2023-04-24T09:43:33;97406.66;;;12.87
79053;BMP280;68451;49.510;6.026;2023-04-24T09:46:04;97349.53;;;11.98
79053;BMP280;68451;49.510;6.026;2023-04-24T09:48:32;97391.38;;;11.98
79053;BMP280;68451;49.510;6.026;2023-04-24T09:50:58;97409.25;;;11.85
79053;BMP280;68451;49.510;6.026;2023-04-24T09:53:25;97394.44;;;11.35
79053;BMP280;68451;49.510;6.026;2023-04-24T09:55:51;97415.59;;;11.17
79053;BMP280;68451;49.510;6.026;2023-04-24T09:58:24;97435.00;;;11.21
79053;BMP280;68451;49.510;6.026;2023-04-24T10:00:53;97366.41;;;10.75
79053;BMP280;68451;49.510;6.026;2023-04-24T10:03:19;97247.94;;;10.15
79053;BMP280;68451;49.510;6.026;2023-04-24T10:05:46;97392.81;;;11.29
79053;BMP280;68451;49.510;6.026;2023-04-24T10:08:12;97336.63;;;11.10
79053;BMP280;68451;49.510;6.026;2023-04-24T10:10:43;97439.56;;;11.81
79053;BMP280;68451;49.510;6.026;2023-04-24T10:13:10;97449.09;;;11.92
79053;BMP280;68451;49.510;6.026;2023-04-24T10:15:36;97215.69;;;10.71
79053;BMP280;68451;49.510;6.026;2023-04-24T10:18:04;97450.28;;;12.23
79053;BMP280;68451;49.510;6.026;2023-04-24T10:20:31;97382.31;;;11.84
79053;BMP280;68451;49.510;6.026;2023-04-24T10:22:58;97477.34;;;12.33
79053;BMP280;68451;49.510;6.026;2023-04-24T10:25:26;97284.00;;;11.01
79053;BMP280;68451;49.510;6.026;2023-04-24T10:27:53;97477.84;;;12.08
79053;BMP280;68451;49.510;6.026;2023-04-24T10:30:22;97463.59;;;11.78
79053;BMP280;68451;49.510;6.026;2023-04-24T10:32:48;97471.56;;;11.71
79053;BMP280;68451;49.510;6.026;2023-04-24T10:35:14;97352.84;;;10.78
79053;BMP280;68451;49.510;6.026;2023-04-24T10:37:46;97493.91;;;11.62
79053;BMP280;68451;49.510;6.026;2023-04-24T10:40:26;97437.94;;;11.25
79053;BMP280;68451;49.510;6.026;2023-04-24T10:42:53;97455.66;;;11.39
79053;BMP280;68451;49.510;6.026;2023-04-24T10:48:52;97494.47;;;11.64
79053;BMP280;68451;49.510;6.026;2023-04-24T10:51:22;97209.03;;;9.97
79053;BMP280;68451;49.510;6.026;2023-04-24T10:53:50;97506.00;;;12.01
79053;BMP280;68451;49.510;6.026;2023-04-24T10:56:16;97496.53;;;12.17
79053;BMP280;68451;49.510;6.026;2023-04-24T10:58:44;97486.38;;;12.21
79053;BMP280;68451;49.510;6.026;2023-04-24T11:01:29;97462.31;;;12.24
79053;BMP280;68451;49.510;6.026;2023-04-24T11:03:58;97375.53;;;11.66
79053;BMP280;68451;49.510;6.026;2023-04-24T11:06:30;97517.25;;;12.40
79053;BMP280;68451;49.510;6.026;2023-04-24T11:09:03;97466.88;;;12.11
79053;BMP280;68451;49.510;6.026;2023-04-24T11:11:30;97383.03;;;11.80
79053;BMP280;68451;49.510;6.026;2023-04-24T11:14:03;97367.53;;;11.95
79053;BMP280;68451;49.510;6.026;2023-04-24T11:16:35;97493.06;;;13.09
79053;BMP280;68451;49.510;6.026;2023-04-24T11:19:22;97498.63;;;13.12
79053;BMP280;68451;49.510;6.026;2023-04-24T11:21:59;97477.69;;;13.17
79053;BMP280;68451;49.510;6.026;2023-04-24T11:24:31;97428.41;;;13.14
79053;BMP280;68451;49.510;6.026;2023-04-24T11:27:18;97465.97;;;13.62
79053;BMP280;68451;49.510;6.026;2023-04-24T11:29:59;97436.63;;;13.65
79053;BMP280;68451;49.510;6.026;2023-04-24T11:32:28;97444.66;;;13.95
79053;BMP280;68451;49.510;6.026;2023-04-24T11:34:57;97494.22;;;14.39
79053;BMP280;68451;49.510;6.026;2023-04-24T11:37:26;97452.34;;;14.12
79053;BMP280;68451;49.510;6.026;2023-04-24T11:47:01;97520.06;;;14.10
79053;BMP280;68451;49.510;6.026;2023-04-24T11:49:26;97184.84;;;11.82
79053;BMP280;68451;49.510;6.026;2023-04-24T11:51:55;97501.72;;;13.73
79053;BMP280;68451;49.510;6.026;2023-04-24T11:54:21;97431.59;;;13.21
79053;BMP280;68451;49.510;6.026;2023-04-24T11:56:47;97520.19;;;13.93
79053;BMP280;68451;49.510;6.026;2023-04-24T11:59:14;97515.63;;;14.20
79053;BMP280;68451;49.510;6.026;2023-04-24T12:01:47;97461.53;;;14.09
79053;BMP280;68451;49.510;6.026;2023-04-24T12:04:13;97484.00;;;14.37
79053;BMP280;68451;49.510;6.026;2023-04-24T12:06:39;97486.91;;;14.46
79053;BMP280;68451;49.510;6.026;2023-04-24T12:09:05;97426.06;;;14.07
79053;BMP280;68451;49.510;6.026;2023-04-24T12:11:31;97491.59;;;14.44
79053;BMP280;68451;49.510;6.026;2023-04-24T12:13:57;97506.78;;;14.31
79053;BMP280;68451;49.510;6.026;2023-04-24T12:16:26;97508.53;;;14.16
79053;BMP280;68451;49.510;6.026;2023-04-24T12:18:51;97525.53;;;14.03
79053;BMP280;68451;49.510;6.026;2023-04-24T12:21:22;97385.84;;;13.02
79053;BMP280;68451;49.510;6.026;2023-04-24T12:23:48;97444.00;;;13.31
79053;BMP280;68451;49.510;6.026;2023-04-24T12:26:18;97532.81;;;13.91
79053;BMP280;68451;49.510;6.026;2023-04-24T12:28:46;97446.56;;;13.26
79053;BMP280;68451;49.510;6.026;2023-04-24T12:31:12;97517.81;;;13.50
79053;BMP280;68451;49.510;6.026;2023-04-24T12:33:37;97528.22;;;13.39
79053;BMP280;68451;49.510;6.026;2023-04-24T12:36:03;97509.75;;;12.97
79053;BMP280;68451;49.510;6.026;2023-04-24T12:38:31;97520.25;;;12.76
79053;BMP280;68451;49.510;6.026;2023-04-24T12:41:04;97527.94;;;12.61
79053;BMP280;68451;49.510;6.026;2023-04-24T12:43:30;97554.78;;;12.51
79053;BMP280;68451;49.510;6.026;2023-04-24T12:45:56;97506.41;;;11.93
79053;BMP280;68451;49.510;6.026;2023-04-24T12:48:25;97554.25;;;12.27
79053;BMP280;68451;49.510;6.026;2023-04-24T12:50:50;97395.19;;;11.14
79053;BMP280;68451;49.510;6.026;2023-04-24T12:53:16;97417.28;;;11.23
79053;BMP280;68451;49.510;6.026;2023-04-24T12:59:03;97542.81;;;11.95
79053;BMP280;68451;49.510;6.026;2023-04-24T13:01:29;97509.91;;;11.99
79053;BMP280;68451;49.510;6.026;2023-04-24T13:03:55;97527.16;;;12.38
79053;BMP280;68451;49.510;6.026;2023-04-24T13:06:21;97505.03;;;12.29
79053;BMP280;68451;49.510;6.026;2023-04-24T13:08:46;97511.63;;;12.32
79053;BMP280;68451;49.510;6.026;2023-04-24T13:11:13;97512.09;;;12.50
79053;BMP280;68451;49.510;6.026;2023-04-24T13:13:38;97517.19;;;12.35
79053;BMP280;68451;49.510;6.026;2023-04-24T13:16:04;97484.31;;;12.23
79053;BMP280;68451;49.510;6.026;2023-04-24T13:18:30;97484.97;;;12.13
79053;BMP280;68451;49.510;6.026;2023-04-24T13:20:56;97530.25;;;12.35
79053;BMP280;68451;49.510;6.026;2023-04-24T13:23:22;97470.72;;;12.04
79053;BMP280;68451;49.510;6.026;2023-04-24T13:25:48;97525.25;;;12.55
79053;BMP280;68451;49.510;6.026;2023-04-24T13:28:13;97507.91;;;12.49
79053;BMP280;68451;49.510;6.026;2023-04-24T13:30:39;97518.66;;;12.75
79053;BMP280;68451;49.510;6.026;2023-04-24T13:33:05;97523.22;;;12.84
79053;BMP280;68451;49.510;6.026;2023-04-24T13:35:31;97484.31;;;12.71
79053;BMP280;68451;49.510;6.026;2023-04-24T13:37:58;97521.53;;;13.00
79053;BMP280;68451;49.510;6.026;2023-04-24T13:40:26;97500.38;;;13.07
79053;BMP280;68451;49.510;6.026;2023-04-24T13:42:52;97488.97;;;13.18
79053;BMP280;68451;49.510;6.026;2023-04-24T13:45:18;97489.34;;;13.31
79053;BMP280;68451;49.510;6.026;2023-04-24T13:47:43;97502.06;;;13.50
79053;BMP280;68451;49.510;6.026;2023-04-24T13:50:09;97518.22;;;13.68
79053;BMP280;68451;49.510;6.026;2023-04-24T13:52:35;97497.19;;;13.63
79053;BMP280;68451;49.510;6.026;2023-04-24T13:55:00;97496.69;;;13.61
79053;BMP280;68451;49.510;6.026;2023-04-24T13:57:26;97491.13;;;13.58
79053;BMP280;68451;49.510;6.026;2023-04-24T13:59:53;97513.84;;;13.79
79053;BMP280;68451;49.510;6.026;2023-04-24T14:02:20;97455.38;;;13.47
79053;BMP280;68451;49.510;6.026;2023-04-24T14:04:46;97503.50;;;13.67
79053;BMP280;68451;49.510;6.026;2023-04-24T14:07:13;97502.13;;;13.55
79053;BMP280;68451;49.510;6.026;2023-04-24T14:09:38;97502.13;;;13.55
79053;BMP280;68451;49.510;6.026;2023-04-24T14:12:04;97467.09;;;13.34
79053;BMP280;68451;49.510;6.026;2023-04-24T14:14:31;97514.00;;;13.67
79053;BMP280;68451;49.510;6.026;2023-04-24T14:16:56;97501.91;;;13.61
79053;BMP280;68451;49.510;6.026;2023-04-24T14:19:22;97471.13;;;13.47
79053;BMP280;68451;49.510;6.026;2023-04-24T14:21:47;97464.53;;;13.39
79053;BMP280;68451;49.510;6.026;2023-04-24T14:24:13;97469.44;;;13.35
79053;BMP280;68451;49.510;6.026;2023-04-24T14:26:38;97467.81;;;13.24
79053;BMP280;68451;49.510;6.026;2023-04-24T14:29:04;97512.94;;;13.31